GLO1912 SBSV-SBSG
Flight info
| Callsign | GLO1912 |
|---|---|
| Flight time | 1h 17m |
| Altitude | 35000 |
| Route | ASGIK UZ73 ESMIG UZ72 TOGUN |
| Aircraft | B38M/M-SDE1FGHILORVWXY/HB1 |
Departure
| Time | 2026-05-04 20:50 |
|---|---|
| Airport | Deputado Luiz Eduardo Magalhães International Airport (SBSV) |
Arrival
| Time | 2026-05-04 22:08 |
|---|---|
| Airport | Rio Grande do Norte/São Gonçalo do Amarante–Governador Aluízio Alves International Airport (SBSG) |
| Time | Latitude | Longitude | Altitude | Speed | Heading |
|---|---|---|---|---|---|
| 2026-05-04 20:37 | -12.91396 | -38.33205 | 27 ft | 0 kts | 272° |
| 2026-05-04 20:41 | -12.91396 | -38.33191 | 28 ft | 2 kts | 275° |
| 2026-05-04 20:41 | -12.91398 | -38.33176 | 28 ft | 2 kts | 277° |
| 2026-05-04 20:41 | -12.91400 | -38.33161 | 29 ft | 2 kts | 282° |
| 2026-05-04 20:42 | -12.91403 | -38.33146 | 29 ft | 2 kts | 291° |
| 2026-05-04 20:42 | -12.91407 | -38.33136 | 30 ft | 2 kts | 317° |
| 2026-05-04 20:42 | -12.91408 | -38.33134 | 28 ft | 0 kts | 346° |
| 2026-05-04 20:46 | -12.91407 | -38.33134 | 28 ft | 0 kts | 346° |
| 2026-05-04 20:46 | -12.91386 | -38.33139 | 28 ft | 4 kts | 346° |
| 2026-05-04 20:46 | -12.91366 | -38.33144 | 28 ft | 5 kts | 346° |
| 2026-05-04 20:46 | -12.91328 | -38.33154 | 28 ft | 6 kts | 346° |
| 2026-05-04 20:47 | -12.91285 | -38.33171 | 28 ft | 6 kts | 314° |
| 2026-05-04 20:47 | -12.91271 | -38.33203 | 28 ft | 4 kts | 281° |
| 2026-05-04 20:47 | -12.91275 | -38.33239 | 27 ft | 8 kts | 261° |
| 2026-05-04 20:47 | -12.91282 | -38.33295 | 27 ft | 4 kts | 279° |
| 2026-05-04 20:48 | -12.91274 | -38.33304 | 27 ft | 2 kts | 323° |
| 2026-05-04 20:48 | -12.91250 | -38.33316 | 26 ft | 6 kts | 334° |
| 2026-05-04 20:48 | -12.91210 | -38.33347 | 27 ft | 9 kts | 308° |
| 2026-05-04 20:48 | -12.91173 | -38.33411 | 24 ft | 12 kts | 293° |
| 2026-05-04 20:49 | -12.91115 | -38.33457 | 24 ft | 11 kts | 12° |
| 2026-05-04 20:49 | -12.91086 | -38.33404 | 25 ft | 8 kts | 76° |
| 2026-05-04 20:49 | -12.91072 | -38.33346 | 23 ft | 9 kts | 78° |
| 2026-05-04 20:49 | -12.91025 | -38.33070 | 29 ft | 77 kts | 81° |
| 2026-05-04 20:50 | -12.90867 | -38.32304 | 41 ft | 142 kts | 79° |
| 2026-05-04 20:50 | -12.90673 | -38.31177 | 297 ft | 171 kts | 85° |
| 2026-05-04 20:50 | -12.90460 | -38.29927 | 882 ft | 174 kts | 82° |
| 2026-05-04 20:50 | -12.90212 | -38.28736 | 1510 ft | 170 kts | 80° |
| 2026-05-04 20:51 | -12.89837 | -38.27561 | 1777 ft | 178 kts | 74° |
| 2026-05-04 20:51 | -12.89168 | -38.26431 | 1884 ft | 199 kts | 48° |
| 2026-05-04 20:51 | -12.87949 | -38.25700 | 2034 ft | 216 kts | 19° |
| 2026-05-04 20:51 | -12.86402 | -38.25603 | 2126 ft | 233 kts | 351° |
| 2026-05-04 20:52 | -12.84833 | -38.26161 | 2242 ft | 245 kts | 335° |
| 2026-05-04 20:52 | -12.83216 | -38.26802 | 2343 ft | 254 kts | 343° |
| 2026-05-04 20:52 | -12.81425 | -38.27155 | 2580 ft | 272 kts | 354° |
| 2026-05-04 20:52 | -12.79506 | -38.27371 | 3187 ft | 281 kts | 354° |
| 2026-05-04 20:53 | -12.77553 | -38.27653 | 3945 ft | 285 kts | 352° |
| 2026-05-04 20:53 | -12.75586 | -38.27987 | 4712 ft | 289 kts | 351° |
| 2026-05-04 20:53 | -12.73594 | -38.28316 | 5473 ft | 292 kts | 352° |
| 2026-05-04 20:53 | -12.71561 | -38.28568 | 5927 ft | 295 kts | 2° |
| 2026-05-04 20:54 | -12.69552 | -38.28241 | 6232 ft | 292 kts | 20° |
| 2026-05-04 20:54 | -12.67653 | -38.27516 | 7020 ft | 291 kts | 25° |
| 2026-05-04 20:54 | -12.65768 | -38.26746 | 7788 ft | 293 kts | 22° |
| 2026-05-04 20:54 | -12.63830 | -38.26073 | 8576 ft | 295 kts | 20° |
| 2026-05-04 20:55 | -12.61861 | -38.25444 | 9342 ft | 298 kts | 20° |
| 2026-05-04 20:55 | -12.59886 | -38.24783 | 10093 ft | 300 kts | 21° |
| 2026-05-04 20:55 | -12.57889 | -38.24091 | 10629 ft | 308 kts | 21° |
| 2026-05-04 20:55 | -12.55812 | -38.23377 | 10989 ft | 323 kts | 21° |
| 2026-05-04 20:56 | -12.53632 | -38.22638 | 11351 ft | 336 kts | 20° |
| 2026-05-04 20:56 | -12.51393 | -38.21881 | 11848 ft | 343 kts | 20° |
| 2026-05-04 20:56 | -12.49107 | -38.21105 | 12407 ft | 348 kts | 21° |
| 2026-05-04 20:56 | -12.46795 | -38.20317 | 12981 ft | 353 kts | 21° |
| 2026-05-04 20:57 | -12.44450 | -38.19520 | 13566 ft | 357 kts | 21° |
| 2026-05-04 20:57 | -12.42084 | -38.18717 | 14099 ft | 360 kts | 20° |
| 2026-05-04 20:57 | -12.39690 | -38.17904 | 14590 ft | 364 kts | 20° |
| 2026-05-04 20:57 | -12.37280 | -38.17085 | 15096 ft | 367 kts | 20° |
| 2026-05-04 20:58 | -12.34846 | -38.16259 | 15590 ft | 370 kts | 20° |
| 2026-05-04 20:58 | -12.32400 | -38.15428 | 16088 ft | 372 kts | 20° |
| 2026-05-04 20:58 | -12.29927 | -38.14589 | 16580 ft | 375 kts | 20° |
| 2026-05-04 20:58 | -12.27440 | -38.13745 | 17069 ft | 378 kts | 20° |
| 2026-05-04 20:59 | -12.24933 | -38.12894 | 17544 ft | 381 kts | 20° |
| 2026-05-04 20:59 | -12.22409 | -38.12038 | 18012 ft | 384 kts | 20° |
| 2026-05-04 20:59 | -12.19868 | -38.11176 | 18449 ft | 386 kts | 19° |
| 2026-05-04 20:59 | -12.17342 | -38.10320 | 18851 ft | 389 kts | 19° |
| 2026-05-04 21:00 | -12.14768 | -38.09447 | 19248 ft | 391 kts | 19° |
| 2026-05-04 21:00 | -12.12181 | -38.08572 | 19652 ft | 393 kts | 19° |
| 2026-05-04 21:00 | -12.09583 | -38.07690 | 20064 ft | 394 kts | 19° |
| 2026-05-04 21:00 | -12.06975 | -38.06806 | 20474 ft | 396 kts | 19° |
| 2026-05-04 21:01 | -12.04356 | -38.05919 | 20892 ft | 398 kts | 18° |
| 2026-05-04 21:01 | -12.01723 | -38.05027 | 21302 ft | 399 kts | 19° |
| 2026-05-04 21:01 | -11.99080 | -38.04133 | 21732 ft | 401 kts | 18° |
| 2026-05-04 21:01 | -11.96426 | -38.03234 | 22145 ft | 403 kts | 18° |
| 2026-05-04 21:02 | -11.93763 | -38.02333 | 22575 ft | 404 kts | 18° |
| 2026-05-04 21:02 | -11.91089 | -38.01428 | 22988 ft | 406 kts | 18° |
| 2026-05-04 21:02 | -11.88401 | -38.00518 | 23398 ft | 408 kts | 18° |
| 2026-05-04 21:02 | -11.85700 | -37.99605 | 23788 ft | 409 kts | 18° |
| 2026-05-04 21:03 | -11.82987 | -37.98687 | 24120 ft | 412 kts | 18° |
| 2026-05-04 21:03 | -11.80264 | -37.97766 | 24452 ft | 413 kts | 18° |
| 2026-05-04 21:03 | -11.77527 | -37.96841 | 24780 ft | 416 kts | 18° |
| 2026-05-04 21:03 | -11.74773 | -37.95911 | 25104 ft | 418 kts | 18° |
| 2026-05-04 21:04 | -11.72008 | -37.94976 | 25434 ft | 420 kts | 18° |
| 2026-05-04 21:04 | -11.69226 | -37.94036 | 25755 ft | 422 kts | 18° |
| 2026-05-04 21:04 | -11.66429 | -37.93091 | 26085 ft | 424 kts | 18° |
| 2026-05-04 21:04 | -11.63618 | -37.92143 | 26408 ft | 427 kts | 18° |
| 2026-05-04 21:05 | -11.60795 | -37.91190 | 26731 ft | 429 kts | 18° |
| 2026-05-04 21:05 | -11.57953 | -37.90230 | 27044 ft | 431 kts | 18° |
| 2026-05-04 21:05 | -11.55098 | -37.89267 | 27357 ft | 434 kts | 17° |
| 2026-05-04 21:05 | -11.52224 | -37.88297 | 27671 ft | 436 kts | 17° |
| 2026-05-04 21:06 | -11.49339 | -37.87324 | 27972 ft | 438 kts | 18° |
| 2026-05-04 21:06 | -11.46428 | -37.86354 | 28266 ft | 441 kts | 15° |
| 2026-05-04 21:06 | -11.43457 | -37.85565 | 28567 ft | 443 kts | 14° |
| 2026-05-04 21:06 | -11.40465 | -37.84776 | 28872 ft | 445 kts | 14° |
| 2026-05-04 21:07 | -11.37466 | -37.83976 | 29166 ft | 447 kts | 14° |
| 2026-05-04 21:07 | -11.34442 | -37.83172 | 29461 ft | 450 kts | 13° |
| 2026-05-04 21:07 | -11.31446 | -37.82383 | 29748 ft | 452 kts | 13° |
| 2026-05-04 21:07 | -11.28351 | -37.81568 | 30030 ft | 455 kts | 14° |
| 2026-05-04 21:08 | -11.25322 | -37.80766 | 30271 ft | 457 kts | 14° |
| 2026-05-04 21:08 | -11.22189 | -37.79936 | 30505 ft | 460 kts | 14° |
| 2026-05-04 21:08 | -11.19123 | -37.79126 | 30726 ft | 463 kts | 13° |
| 2026-05-04 21:08 | -11.15998 | -37.78301 | 30959 ft | 465 kts | 13° |
| 2026-05-04 21:09 | -11.12855 | -37.77471 | 31176 ft | 468 kts | 14° |
| 2026-05-04 21:09 | -11.09695 | -37.76636 | 31395 ft | 471 kts | 14° |
| 2026-05-04 21:09 | -11.06515 | -37.75797 | 31621 ft | 473 kts | 13° |
| 2026-05-04 21:09 | -11.03322 | -37.74955 | 31843 ft | 476 kts | 14° |
| 2026-05-04 21:10 | -11.00103 | -37.74105 | 32059 ft | 478 kts | 14° |
| 2026-05-04 21:10 | -10.96876 | -37.73253 | 32291 ft | 481 kts | 14° |
| 2026-05-04 21:10 | -10.93629 | -37.72397 | 32513 ft | 483 kts | 14° |
| 2026-05-04 21:10 | -10.90367 | -37.71537 | 32733 ft | 486 kts | 14° |
| 2026-05-04 21:11 | -10.87088 | -37.70673 | 33013 ft | 487 kts | 14° |
| 2026-05-04 21:11 | -10.83812 | -37.69809 | 33352 ft | 486 kts | 14° |
| 2026-05-04 21:11 | -10.80538 | -37.68946 | 33689 ft | 486 kts | 14° |
| 2026-05-04 21:11 | -10.77262 | -37.68083 | 34021 ft | 486 kts | 14° |
| 2026-05-04 21:12 | -10.73984 | -37.67220 | 34306 ft | 487 kts | 13° |
| 2026-05-04 21:12 | -10.70708 | -37.66357 | 34602 ft | 487 kts | 13° |
| 2026-05-04 21:12 | -10.67432 | -37.65495 | 34876 ft | 487 kts | 13° |
| 2026-05-04 21:12 | -10.64157 | -37.64633 | 35021 ft | 485 kts | 13° |
| 2026-05-04 21:13 | -10.57664 | -37.62924 | 35015 ft | 480 kts | 13° |
| 2026-05-04 21:13 | -10.51214 | -37.61228 | 35016 ft | 478 kts | 13° |
| 2026-05-04 21:14 | -10.44780 | -37.59537 | 35015 ft | 477 kts | 13° |
| 2026-05-04 21:14 | -10.38345 | -37.57847 | 35009 ft | 477 kts | 13° |
| 2026-05-04 21:15 | -10.31915 | -37.56159 | 35015 ft | 477 kts | 13° |
| 2026-05-04 21:15 | -10.25483 | -37.54471 | 35013 ft | 477 kts | 13° |
| 2026-05-04 21:16 | -10.19046 | -37.52782 | 35008 ft | 478 kts | 13° |
| 2026-05-04 21:16 | -10.12613 | -37.51095 | 35006 ft | 478 kts | 13° |
| 2026-05-04 21:17 | -10.06177 | -37.49408 | 35002 ft | 478 kts | 13° |
| 2026-05-04 21:17 | -9.99736 | -37.47721 | 35002 ft | 478 kts | 13° |
| 2026-05-04 21:18 | -9.93298 | -37.46035 | 35004 ft | 478 kts | 13° |
| 2026-05-04 21:18 | -9.86865 | -37.44351 | 34999 ft | 478 kts | 13° |
| 2026-05-04 21:19 | -9.80428 | -37.42666 | 34997 ft | 478 kts | 13° |
| 2026-05-04 21:19 | -9.73993 | -37.40983 | 34998 ft | 478 kts | 13° |
| 2026-05-04 21:20 | -9.67559 | -37.39301 | 34995 ft | 478 kts | 13° |
| 2026-05-04 21:20 | -9.61121 | -37.37618 | 34993 ft | 478 kts | 13° |
| 2026-05-04 21:21 | -9.54680 | -37.35935 | 34997 ft | 478 kts | 13° |
| 2026-05-04 21:21 | -9.48241 | -37.34254 | 34997 ft | 478 kts | 13° |
| 2026-05-04 21:22 | -9.41801 | -37.32572 | 35006 ft | 478 kts | 13° |
| 2026-05-04 21:22 | -9.35360 | -37.30892 | 35008 ft | 478 kts | 13° |
| 2026-05-04 21:23 | -9.28962 | -37.29223 | 35009 ft | 478 kts | 13° |
| 2026-05-04 21:23 | -9.22523 | -37.27544 | 35009 ft | 478 kts | 13° |
| 2026-05-04 21:24 | -9.16081 | -37.25865 | 35007 ft | 478 kts | 13° |
| 2026-05-04 21:24 | -9.09634 | -37.24185 | 35007 ft | 478 kts | 13° |
| 2026-05-04 21:25 | -9.03205 | -37.22510 | 35028 ft | 473 kts | 13° |
| 2026-05-04 21:25 | -8.96889 | -37.20865 | 35022 ft | 466 kts | 13° |
| 2026-05-04 21:26 | -8.90618 | -37.19234 | 35024 ft | 464 kts | 13° |
| 2026-05-04 21:26 | -8.84373 | -37.17609 | 35023 ft | 463 kts | 13° |
| 2026-05-04 21:27 | -8.81255 | -37.16799 | 34839 ft | 462 kts | 13° |
| 2026-05-04 21:27 | -8.78148 | -37.15991 | 34604 ft | 462 kts | 13° |
| 2026-05-04 21:27 | -8.75036 | -37.15182 | 34376 ft | 462 kts | 13° |
| 2026-05-04 21:27 | -8.71925 | -37.14373 | 34151 ft | 462 kts | 13° |
| 2026-05-04 21:28 | -8.68810 | -37.13564 | 33919 ft | 462 kts | 13° |
| 2026-05-04 21:28 | -8.65700 | -37.12755 | 33834 ft | 461 kts | 13° |
| 2026-05-04 21:28 | -8.59487 | -37.11142 | 33857 ft | 460 kts | 13° |
| 2026-05-04 21:29 | -8.53292 | -37.09533 | 33856 ft | 459 kts | 13° |
| 2026-05-04 21:29 | -8.47116 | -37.07928 | 33856 ft | 458 kts | 13° |
| 2026-05-04 21:30 | -8.40940 | -37.06324 | 33846 ft | 458 kts | 13° |
| 2026-05-04 21:30 | -8.34771 | -37.04722 | 33840 ft | 458 kts | 13° |
| 2026-05-04 21:31 | -8.26554 | -37.02589 | 33849 ft | 458 kts | 13° |
| 2026-05-04 21:32 | -8.20387 | -37.00989 | 33844 ft | 458 kts | 13° |
| 2026-05-04 21:32 | -8.14218 | -36.99389 | 33841 ft | 458 kts | 13° |
| 2026-05-04 21:33 | -8.08056 | -36.97791 | 33837 ft | 457 kts | 13° |
| 2026-05-04 21:33 | -8.01896 | -36.96194 | 33836 ft | 457 kts | 13° |
| 2026-05-04 21:34 | -7.95736 | -36.94598 | 33828 ft | 457 kts | 13° |
| 2026-05-04 21:34 | -7.89578 | -36.93003 | 33829 ft | 457 kts | 13° |
| 2026-05-04 21:35 | -7.83420 | -36.91408 | 33826 ft | 457 kts | 13° |
| 2026-05-04 21:35 | -7.77257 | -36.89813 | 33827 ft | 457 kts | 13° |
| 2026-05-04 21:36 | -7.71097 | -36.88219 | 33821 ft | 457 kts | 13° |
| 2026-05-04 21:36 | -7.64933 | -36.86624 | 33822 ft | 457 kts | 13° |
| 2026-05-04 21:37 | -7.58769 | -36.85030 | 33820 ft | 457 kts | 12° |
| 2026-05-04 21:37 | -7.52612 | -36.83439 | 33822 ft | 457 kts | 12° |
| 2026-05-04 21:38 | -7.46458 | -36.81848 | 33821 ft | 456 kts | 12° |
| 2026-05-04 21:38 | -7.40308 | -36.80259 | 33819 ft | 456 kts | 12° |
| 2026-05-04 21:39 | -7.34158 | -36.78671 | 33436 ft | 455 kts | 12° |
| 2026-05-04 21:39 | -7.31098 | -36.77880 | 32964 ft | 453 kts | 12° |
| 2026-05-04 21:39 | -7.28048 | -36.77092 | 32482 ft | 451 kts | 12° |
| 2026-05-04 21:39 | -7.25018 | -36.76311 | 32024 ft | 448 kts | 12° |
| 2026-05-04 21:40 | -7.22011 | -36.75534 | 31573 ft | 445 kts | 12° |
| 2026-05-04 21:40 | -7.19054 | -36.74771 | 31141 ft | 443 kts | 12° |
| 2026-05-04 21:40 | -7.16081 | -36.74004 | 30708 ft | 440 kts | 12° |
| 2026-05-04 21:40 | -7.13125 | -36.73241 | 30282 ft | 437 kts | 12° |
| 2026-05-04 21:41 | -7.10191 | -36.72481 | 29830 ft | 434 kts | 13° |
| 2026-05-04 21:41 | -7.07272 | -36.71724 | 29340 ft | 431 kts | 13° |
| 2026-05-04 21:41 | -7.04376 | -36.70975 | 28870 ft | 428 kts | 13° |
| 2026-05-04 21:41 | -7.01502 | -36.70232 | 28416 ft | 425 kts | 13° |
| 2026-05-04 21:42 | -6.98650 | -36.69495 | 27970 ft | 422 kts | 13° |
| 2026-05-04 21:42 | -6.95814 | -36.68761 | 27530 ft | 419 kts | 13° |
| 2026-05-04 21:42 | -6.93000 | -36.68033 | 27084 ft | 416 kts | 13° |
| 2026-05-04 21:42 | -6.90212 | -36.67313 | 26662 ft | 413 kts | 14° |
| 2026-05-04 21:43 | -6.87440 | -36.66596 | 26245 ft | 409 kts | 14° |
| 2026-05-04 21:43 | -6.84693 | -36.65886 | 25846 ft | 406 kts | 14° |
| 2026-05-04 21:43 | -6.81967 | -36.65182 | 25448 ft | 403 kts | 15° |
| 2026-05-04 21:43 | -6.79268 | -36.64484 | 25074 ft | 399 kts | 16° |
| 2026-05-04 21:44 | -6.76588 | -36.63791 | 24692 ft | 396 kts | 15° |
| 2026-05-04 21:44 | -6.73930 | -36.63104 | 24308 ft | 393 kts | 15° |
| 2026-05-04 21:44 | -6.71294 | -36.62424 | 23934 ft | 390 kts | 16° |
| 2026-05-04 21:44 | -6.68678 | -36.61748 | 23556 ft | 387 kts | 17° |
| 2026-05-04 21:45 | -6.66186 | -36.60799 | 23121 ft | 381 kts | 28° |
| 2026-05-04 21:45 | -6.63886 | -36.59499 | 22684 ft | 378 kts | 33° |
| 2026-05-04 21:45 | -6.61699 | -36.58055 | 22250 ft | 374 kts | 39° |
| 2026-05-04 21:45 | -6.59801 | -36.56294 | 21825 ft | 370 kts | 47° |
| 2026-05-04 21:46 | -6.58079 | -36.54380 | 21407 ft | 368 kts | 50° |
| 2026-05-04 21:46 | -6.56373 | -36.52476 | 20991 ft | 366 kts | 47° |
| 2026-05-04 21:46 | -6.54609 | -36.50645 | 20588 ft | 364 kts | 46° |
| 2026-05-04 21:46 | -6.52842 | -36.48838 | 20188 ft | 361 kts | 47° |
| 2026-05-04 21:47 | -6.51113 | -36.47015 | 19798 ft | 359 kts | 47° |
| 2026-05-04 21:47 | -6.49405 | -36.45193 | 19420 ft | 357 kts | 47° |
| 2026-05-04 21:47 | -6.47696 | -36.43391 | 19040 ft | 355 kts | 47° |
| 2026-05-04 21:47 | -6.45989 | -36.41605 | 18662 ft | 353 kts | 47° |
| 2026-05-04 21:48 | -6.44294 | -36.39825 | 18290 ft | 351 kts | 47° |
| 2026-05-04 21:48 | -6.42612 | -36.38052 | 17872 ft | 349 kts | 47° |
| 2026-05-04 21:48 | -6.40940 | -36.36290 | 17468 ft | 347 kts | 47° |
| 2026-05-04 21:48 | -6.39279 | -36.34544 | 17065 ft | 344 kts | 47° |
| 2026-05-04 21:49 | -6.37629 | -36.32809 | 16675 ft | 342 kts | 47° |
| 2026-05-04 21:49 | -6.35992 | -36.31087 | 16286 ft | 339 kts | 47° |
| 2026-05-04 21:49 | -6.34363 | -36.29374 | 15910 ft | 337 kts | 47° |
| 2026-05-04 21:49 | -6.32750 | -36.27678 | 15539 ft | 335 kts | 47° |
| 2026-05-04 21:50 | -6.31170 | -36.26017 | 15189 ft | 332 kts | 47° |
| 2026-05-04 21:50 | -6.29559 | -36.24323 | 14819 ft | 330 kts | 47° |
| 2026-05-04 21:50 | -6.27997 | -36.22682 | 14476 ft | 328 kts | 47° |
| 2026-05-04 21:50 | -6.26431 | -36.21035 | 14122 ft | 325 kts | 47° |
| 2026-05-04 21:51 | -6.24873 | -36.19397 | 13785 ft | 323 kts | 47° |
| 2026-05-04 21:51 | -6.23323 | -36.17769 | 13397 ft | 321 kts | 47° |
| 2026-05-04 21:51 | -6.21785 | -36.16152 | 13014 ft | 319 kts | 48° |
| 2026-05-04 21:51 | -6.20257 | -36.14546 | 12630 ft | 317 kts | 47° |
| 2026-05-04 21:52 | -6.18736 | -36.12949 | 12256 ft | 315 kts | 48° |
| 2026-05-04 21:52 | -6.17224 | -36.11361 | 11881 ft | 313 kts | 48° |
| 2026-05-04 21:52 | -6.15722 | -36.09783 | 11517 ft | 312 kts | 48° |
| 2026-05-04 21:52 | -6.14228 | -36.08213 | 11182 ft | 309 kts | 48° |
| 2026-05-04 21:53 | -6.12757 | -36.06669 | 11003 ft | 302 kts | 48° |
| 2026-05-04 21:53 | -6.11322 | -36.05163 | 10796 ft | 295 kts | 48° |
| 2026-05-04 21:53 | -6.09913 | -36.03682 | 10550 ft | 292 kts | 48° |
| 2026-05-04 21:53 | -6.08518 | -36.02217 | 10284 ft | 289 kts | 48° |
| 2026-05-04 21:54 | -6.07130 | -36.00760 | 10021 ft | 287 kts | 48° |
| 2026-05-04 21:54 | -6.05756 | -35.99317 | 9758 ft | 285 kts | 48° |
| 2026-05-04 21:54 | -6.04385 | -35.97878 | 9432 ft | 281 kts | 48° |
| 2026-05-04 21:54 | -6.03033 | -35.96457 | 8500 ft | 283 kts | 48° |
| 2026-05-04 21:55 | -6.01664 | -35.95020 | 7941 ft | 285 kts | 48° |
| 2026-05-04 21:55 | -6.00295 | -35.93584 | 7682 ft | 284 kts | 48° |
| 2026-05-04 21:55 | -5.98933 | -35.92156 | 7408 ft | 283 kts | 49° |
| 2026-05-04 21:55 | -5.97573 | -35.90729 | 7129 ft | 282 kts | 49° |
| 2026-05-04 21:56 | -5.96218 | -35.89306 | 6850 ft | 282 kts | 48° |
| 2026-05-04 21:56 | -5.94864 | -35.87885 | 6573 ft | 281 kts | 49° |
| 2026-05-04 21:56 | -5.93512 | -35.86467 | 6299 ft | 281 kts | 49° |
| 2026-05-04 21:56 | -5.92160 | -35.85050 | 6003 ft | 281 kts | 49° |
| 2026-05-04 21:57 | -5.90813 | -35.83637 | 5714 ft | 280 kts | 49° |
| 2026-05-04 21:57 | -5.89466 | -35.82224 | 5445 ft | 279 kts | 49° |
| 2026-05-04 21:57 | -5.88124 | -35.80816 | 5154 ft | 279 kts | 49° |
| 2026-05-04 21:57 | -5.86784 | -35.79411 | 4883 ft | 278 kts | 49° |
| 2026-05-04 21:58 | -5.85466 | -35.78028 | 4604 ft | 278 kts | 49° |
| 2026-05-04 21:58 | -5.84132 | -35.76630 | 4315 ft | 276 kts | 49° |
| 2026-05-04 21:58 | -5.82805 | -35.75239 | 4050 ft | 275 kts | 50° |
| 2026-05-04 21:58 | -5.81482 | -35.73853 | 3809 ft | 274 kts | 50° |
| 2026-05-04 21:59 | -5.80169 | -35.72475 | 3570 ft | 273 kts | 50° |
| 2026-05-04 21:59 | -5.78876 | -35.71123 | 3533 ft | 257 kts | 51° |
| 2026-05-04 21:59 | -5.77710 | -35.69910 | 3518 ft | 227 kts | 51° |
| 2026-05-04 21:59 | -5.76671 | -35.68820 | 3503 ft | 209 kts | 52° |
| 2026-05-04 22:00 | -5.75659 | -35.67749 | 3510 ft | 211 kts | 52° |
| 2026-05-04 22:00 | -5.74646 | -35.66682 | 3506 ft | 210 kts | 52° |
| 2026-05-04 22:00 | -5.73649 | -35.65641 | 3498 ft | 201 kts | 51° |
| 2026-05-04 22:00 | -5.72813 | -35.64612 | 3504 ft | 181 kts | 72° |
| 2026-05-04 22:01 | -5.72600 | -35.63405 | 3508 ft | 173 kts | 103° |
| 2026-05-04 22:01 | -5.72801 | -35.62232 | 3500 ft | 171 kts | 106° |
| 2026-05-04 22:01 | -5.73008 | -35.61052 | 3493 ft | 170 kts | 105° |
| 2026-05-04 22:01 | -5.73196 | -35.59891 | 3502 ft | 168 kts | 105° |
| 2026-05-04 22:02 | -5.73385 | -35.58726 | 3527 ft | 169 kts | 104° |
| 2026-05-04 22:02 | -5.73573 | -35.57561 | 3518 ft | 170 kts | 104° |
| 2026-05-04 22:02 | -5.73762 | -35.56387 | 3545 ft | 172 kts | 104° |
| 2026-05-04 22:02 | -5.73957 | -35.55187 | 3383 ft | 172 kts | 105° |
| 2026-05-04 22:03 | -5.74145 | -35.54012 | 3219 ft | 170 kts | 105° |
| 2026-05-04 22:03 | -5.74337 | -35.52846 | 3032 ft | 170 kts | 105° |
| 2026-05-04 22:03 | -5.74528 | -35.51684 | 2724 ft | 165 kts | 105° |
| 2026-05-04 22:03 | -5.74707 | -35.50580 | 2418 ft | 153 kts | 106° |
| 2026-05-04 22:04 | -5.74866 | -35.49591 | 2073 ft | 135 kts | 105° |
| 2026-05-04 22:04 | -5.75019 | -35.48674 | 1746 ft | 128 kts | 105° |
| 2026-05-04 22:04 | -5.75142 | -35.47853 | 1438 ft | 114 kts | 105° |
| 2026-05-04 22:04 | -5.75263 | -35.47035 | 1179 ft | 121 kts | 104° |
| 2026-05-04 22:05 | -5.75401 | -35.46205 | 1094 ft | 119 kts | 104° |
| 2026-05-04 22:05 | -5.75513 | -35.45393 | 1059 ft | 119 kts | 103° |
| 2026-05-04 22:05 | -5.75660 | -35.44564 | 1003 ft | 121 kts | 105° |
| 2026-05-04 22:05 | -5.75811 | -35.43732 | 935 ft | 125 kts | 102° |
| 2026-05-04 22:06 | -5.75990 | -35.42854 | 916 ft | 127 kts | 101° |
| 2026-05-04 22:06 | -5.76158 | -35.41985 | 900 ft | 127 kts | 102° |
| 2026-05-04 22:06 | -5.76289 | -35.41100 | 769 ft | 129 kts | 100° |
| 2026-05-04 22:06 | -5.76418 | -35.40180 | 646 ft | 135 kts | 101° |
| 2026-05-04 22:07 | -5.76551 | -35.39241 | 526 ft | 135 kts | 101° |
| 2026-05-04 22:07 | -5.76708 | -35.38313 | 355 ft | 135 kts | 102° |
| 2026-05-04 22:07 | -5.76856 | -35.37425 | 274 ft | 115 kts | 101° |
| 2026-05-04 22:07 | -5.76951 | -35.36828 | 274 ft | 62 kts | 98° |
| 2026-05-04 22:08 | -5.76953 | -35.36569 | 277 ft | 26 kts | 75° |
| 2026-05-04 22:08 | -5.76895 | -35.36447 | 274 ft | 17 kts | 44° |
| 2026-05-04 22:08 | -5.76831 | -35.36445 | 275 ft | 4 kts | 307° |
| 2026-05-04 22:08 | -5.76829 | -35.36460 | 273 ft | 4 kts | 274° |
| 2026-05-04 22:09 | -5.76822 | -35.36530 | 273 ft | 16 kts | 280° |
| 2026-05-04 22:09 | -5.76795 | -35.36682 | 274 ft | 28 kts | 279° |
| 2026-05-04 22:09 | -5.76766 | -35.36871 | 273 ft | 26 kts | 278° |
| 2026-05-04 22:09 | -5.76738 | -35.37047 | 276 ft | 26 kts | 279° |
| 2026-05-04 22:10 | -5.76710 | -35.37221 | 275 ft | 22 kts | 283° |
| 2026-05-04 22:10 | -5.76615 | -35.37252 | 273 ft | 15 kts | 7° |
| 2026-05-04 22:10 | -5.76511 | -35.37262 | 273 ft | 15 kts | 356° |
| 2026-05-04 22:10 | -5.76455 | -35.37255 | 273 ft | 0 kts | 9° |